createdAt,value
2019-05-21T00:03:41.999Z,9.03
2019-05-21T00:08:48.067Z,7.92
2019-05-21T00:13:53.940Z,8.05
2019-05-21T00:18:59.810Z,9.23
2019-05-21T00:24:05.781Z,8.40
2019-05-21T00:30:06.222Z,8.58
2019-05-21T00:36:06.856Z,10.30
2019-05-21T00:42:01.505Z,10.18
2019-05-21T00:47:10.440Z,11.33
2019-05-21T00:52:16.609Z,13.85
2019-05-21T00:57:22.628Z,13.95
2019-05-21T01:02:29.677Z,12.73
2019-05-21T01:07:35.650Z,17.30
2019-05-21T01:12:41.619Z,17.65
2019-05-21T01:17:49.153Z,18.42
2019-05-21T01:22:55.098Z,20.32
2019-05-21T01:28:01.069Z,21.40
2019-05-21T01:33:07.041Z,21.52
2019-05-21T01:38:13.215Z,21.02
2019-05-21T01:43:20.109Z,22.40
2019-05-21T01:48:26.082Z,26.17
2019-05-21T01:53:32.049Z,23.50
2019-05-21T01:58:38.022Z,27.13
2019-05-21T02:03:44.193Z,26.87
2019-05-21T02:08:50.266Z,26.42
2019-05-21T02:13:56.232Z,34.33
2019-05-21T02:19:02.196Z,31.40
2019-05-21T02:24:08.419Z,38.50
2019-05-21T02:29:14.452Z,34.85
2019-05-21T02:34:20.428Z,35.63
2019-05-21T02:39:26.310Z,31.95
2019-05-21T02:44:32.267Z,33.92
2019-05-21T02:49:38.238Z,34.58
2019-05-21T02:54:45.233Z,32.53
2019-05-21T02:59:52.842Z,42.03
2019-05-21T03:04:58.812Z,41.70
2019-05-21T03:10:05.504Z,36.05
2019-05-21T03:15:11.881Z,39.90
2019-05-21T03:20:17.954Z,39.30
2019-05-21T03:25:24.029Z,36.60
2019-05-21T03:30:30.112Z,39.10
2019-05-21T03:35:36.176Z,35.58
2019-05-21T03:40:43.069Z,34.15
2019-05-21T03:45:49.034Z,35.88
2019-05-21T03:50:55.416Z,40.08
2019-05-21T03:56:01.398Z,32.30
2019-05-21T04:01:07.408Z,29.55
2019-05-21T04:06:13.342Z,31.48
2019-05-21T04:11:19.406Z,33.60
2019-05-21T04:16:40.226Z,34.18
2019-05-21T04:21:46.398Z,32.17
2019-05-21T04:26:52.471Z,37.17
2019-05-21T04:31:58.466Z,31.65
2019-05-21T04:37:11.009Z,33.83
2019-05-21T04:42:12.841Z,38.20
2019-05-21T04:47:19.253Z,39.13
2019-05-21T04:52:26.506Z,25.27
2019-05-21T04:57:32.619Z,38.15
2019-05-21T05:02:41.521Z,33.63
2019-05-21T05:12:52.782Z,31.57
2019-05-21T05:17:58.828Z,34.80
2019-05-21T05:23:04.913Z,31.80
2019-05-21T05:28:11.623Z,31.95
2019-05-21T05:33:17.732Z,28.32
2019-05-21T05:38:23.851Z,26.57
2019-05-21T05:43:30.326Z,24.85
2019-05-21T05:48:37.951Z,25.52
2019-05-21T05:53:59.382Z,25.23
2019-05-21T05:59:05.992Z,23.85
2019-05-21T06:04:12.028Z,22.70
2019-05-21T06:09:18.045Z,24.98
2019-05-21T06:14:24.119Z,23.52
2019-05-21T06:19:30.385Z,25.60
2019-05-21T06:24:36.709Z,23.35
2019-05-21T06:29:43.248Z,21.15
2019-05-21T06:34:49.488Z,21.23
2019-05-21T06:39:55.575Z,21.82
2019-05-21T06:45:01.849Z,22.05
2019-05-21T06:50:08.691Z,18.82
2019-05-21T06:55:14.834Z,21.62
2019-05-21T07:00:21.686Z,18.60
2019-05-21T07:05:28.125Z,16.20
2019-05-21T07:10:34.773Z,17.80
2019-05-21T07:15:40.840Z,17.85
2019-05-21T07:20:47.019Z,16.25
2019-05-21T07:25:53.128Z,15.53
2019-05-21T07:30:59.097Z,15.88
2019-05-21T07:36:05.594Z,16.02
2019-05-21T07:41:11.626Z,16.10
2019-05-21T07:46:17.768Z,13.35
2019-05-21T07:51:23.815Z,14.65
2019-05-21T07:56:29.944Z,14.65
2019-05-21T08:01:36.916Z,14.93
2019-05-21T08:06:43.088Z,13.58
2019-05-21T08:11:49.835Z,15.48
2019-05-21T08:16:56.076Z,12.47
2019-05-21T08:22:02.559Z,14.75
2019-05-21T08:27:08.835Z,12.63
2019-05-21T08:32:14.911Z,12.82
2019-05-21T08:37:20.983Z,12.28
2019-05-21T08:42:27.891Z,11.63
2019-05-21T08:47:34.187Z,12.57
2019-05-21T08:52:40.366Z,9.73
2019-05-21T08:58:03.761Z,11.08
2019-05-21T09:02:54.695Z,10.90
2019-05-21T09:08:00.797Z,9.48
2019-05-21T09:13:07.089Z,11.90
2019-05-21T09:18:13.111Z,10.28
2019-05-21T09:23:19.529Z,9.70
2019-05-21T09:28:25.529Z,10.90
2019-05-21T09:33:32.090Z,9.83
2019-05-21T09:38:38.021Z,9.43
2019-05-21T09:43:44.037Z,9.08
2019-05-21T09:48:50.205Z,8.95
2019-05-21T09:53:56.280Z,7.28
2019-05-21T09:59:23.235Z,7.75
2019-05-21T10:04:29.464Z,8.35
2019-05-21T10:09:36.038Z,9.45
2019-05-21T10:14:42.177Z,6.20
2019-05-21T10:19:48.507Z,6.70
2019-05-21T10:24:54.545Z,5.10
2019-05-21T10:30:00.705Z,5.53
2019-05-21T10:35:07.654Z,6.87
2019-05-21T10:40:14.911Z,6.50
2019-05-21T10:45:21.491Z,6.05
2019-05-21T10:50:27.967Z,4.47
2019-05-21T10:55:34.197Z,4.45
2019-05-21T11:00:40.728Z,4.47
2019-05-21T11:05:51.416Z,4.33
2019-05-21T11:10:57.588Z,5.62
2019-05-21T11:16:05.095Z,4.75
2019-05-21T11:21:11.205Z,5.15
2019-05-21T11:26:17.467Z,4.33
2019-05-21T11:31:24.146Z,4.33
2019-05-21T11:36:30.302Z,4.00
2019-05-21T11:41:36.705Z,4.40
2019-05-21T11:46:42.753Z,3.83
2019-05-21T11:51:48.932Z,3.05
2019-05-21T11:56:55.110Z,3.20
2019-05-21T12:02:01.257Z,5.03
2019-05-21T12:07:07.363Z,5.50
2019-05-21T12:12:13.939Z,5.03
2019-05-21T12:17:20.353Z,5.12
2019-05-21T12:22:26.449Z,4.20
2019-05-21T12:27:32.531Z,4.12
2019-05-21T12:32:39.406Z,5.05
2019-05-21T12:37:45.441Z,4.00
2019-05-21T12:42:51.958Z,4.17
2019-05-21T12:47:58.352Z,3.60
2019-05-21T12:53:04.421Z,3.80
2019-05-21T12:58:10.655Z,3.80
2019-05-21T13:03:17.036Z,4.80
2019-05-21T13:08:23.506Z,5.03
2019-05-21T13:13:29.994Z,5.47
2019-05-21T13:18:36.536Z,4.22
2019-05-21T13:23:42.793Z,5.15
2019-05-21T13:28:49.156Z,5.25
2019-05-21T13:33:56.046Z,5.78
2019-05-21T13:39:02.667Z,6.20
2019-05-21T13:44:09.815Z,6.60
2019-05-21T13:49:16.663Z,6.65
2019-05-21T13:59:29.680Z,6.60
2019-05-21T14:04:36.671Z,5.40
2019-05-21T14:09:42.861Z,5.43
2019-05-21T14:14:49.447Z,5.90
2019-05-21T14:19:55.553Z,5.92
2019-05-21T14:25:01.804Z,5.30
2019-05-21T14:30:11.870Z,5.40
2019-05-21T14:35:18.226Z,5.53
2019-05-21T14:40:31.611Z,5.80
2019-05-21T14:45:34.586Z,6.17
2019-05-21T14:50:40.958Z,5.95
2019-05-21T14:55:47.225Z,6.40
2019-05-21T15:00:53.463Z,6.45
2019-05-21T15:05:59.481Z,5.55
2019-05-21T15:11:05.650Z,6.80
2019-05-21T15:16:12.644Z,6.83
2019-05-21T15:21:20.364Z,6.33
2019-05-21T15:26:26.946Z,9.33
2019-05-21T15:31:33.361Z,9.35
2019-05-21T15:36:40.429Z,10.80
2019-05-21T15:41:46.557Z,13.70
2019-05-21T15:46:53.083Z,13.45
2019-05-21T15:57:05.289Z,21.52
2019-05-21T16:02:11.418Z,18.85
2019-05-21T16:07:17.505Z,13.15
2019-05-21T16:12:23.499Z,13.32
2019-05-21T16:17:29.947Z,12.35
2019-05-21T16:22:36.100Z,12.88
2019-05-21T16:27:42.349Z,11.57
2019-05-21T16:32:48.731Z,11.50
2019-05-21T16:37:55.353Z,11.80
2019-05-21T16:43:01.425Z,11.05
2019-05-21T16:48:08.096Z,10.65
2019-05-21T16:53:14.553Z,11.45
2019-05-21T16:58:20.617Z,9.93
2019-05-21T17:03:26.637Z,10.15
2019-05-21T17:08:32.763Z,8.75
2019-05-21T17:13:38.690Z,8.00
2019-05-21T17:18:45.268Z,9.13
2019-05-21T17:23:51.344Z,10.90
2019-05-21T17:28:57.419Z,10.32
2019-05-21T17:34:03.482Z,10.38
2019-05-21T17:39:09.995Z,11.28
2019-05-21T17:44:16.031Z,8.18
2019-05-21T17:49:22.109Z,8.58
2019-05-21T17:54:28.103Z,6.87
2019-05-21T17:59:34.297Z,7.17
2019-05-21T18:04:41.454Z,9.30
2019-05-21T18:09:47.955Z,8.23
2019-05-21T18:14:54.249Z,11.00
2019-05-21T18:20:02.144Z,11.80
2019-05-21T18:25:10.490Z,12.55
2019-05-21T18:30:18.073Z,12.23
2019-05-21T18:35:24.966Z,22.27
2019-05-21T18:40:31.036Z,7.77
2019-05-21T18:45:37.311Z,7.47
2019-05-21T18:50:43.614Z,10.03
2019-05-21T18:55:49.862Z,8.68
2019-05-21T19:00:56.051Z,12.65
2019-05-21T19:06:02.216Z,13.03
2019-05-21T19:11:08.604Z,5.95
2019-05-21T19:16:14.773Z,6.50
2019-05-21T19:21:21.052Z,6.83
2019-05-21T19:26:27.229Z,6.30
2019-05-21T19:31:33.512Z,5.87
2019-05-21T19:36:39.513Z,6.17
2019-05-21T19:41:45.452Z,6.55
2019-05-21T19:46:51.415Z,6.85
2019-05-21T19:51:57.600Z,7.35
2019-05-21T19:57:03.769Z,8.53
2019-05-21T20:02:10.402Z,7.17
2019-05-21T20:07:17.882Z,6.28
2019-05-21T20:12:25.161Z,6.40
2019-05-21T20:17:33.176Z,6.55
2019-05-21T20:22:41.406Z,7.90
2019-05-21T20:27:48.297Z,7.90
2019-05-21T20:32:54.601Z,8.88
2019-05-21T20:38:01.977Z,9.10
2019-05-21T20:43:08.211Z,7.90
2019-05-21T20:48:15.089Z,7.35
2019-05-21T20:53:22.042Z,7.22
2019-05-21T20:58:28.728Z,7.67
2019-05-21T21:03:36.133Z,7.72
2019-05-21T21:08:42.102Z,6.00
2019-05-21T21:13:49.614Z,6.58
2019-05-21T21:18:55.575Z,7.17
2019-05-21T21:24:02.712Z,7.22
2019-05-21T21:29:09.674Z,5.80
2019-05-21T21:34:17.087Z,7.00
2019-05-21T21:39:23.143Z,5.75
2019-05-21T21:44:34.214Z,5.65
2019-05-21T21:54:43.826Z,6.22
2019-05-21T21:59:50.100Z,4.37
2019-05-21T22:04:57.869Z,6.35
2019-05-21T22:10:07.059Z,6.40
2019-05-21T22:15:13.433Z,6.42
2019-05-21T22:20:19.410Z,6.65
2019-05-21T22:25:25.385Z,6.45
2019-05-21T22:30:31.865Z,6.87
2019-05-21T22:35:39.175Z,8.20
2019-05-21T22:40:45.344Z,7.08
2019-05-21T22:45:51.836Z,6.90
2019-05-21T22:50:57.794Z,7.60
2019-05-21T22:56:03.771Z,7.17
2019-05-21T23:01:11.688Z,7.25
2019-05-21T23:11:23.326Z,9.65
2019-05-21T23:16:31.439Z,9.05
2019-05-21T23:21:49.904Z,8.40
2019-05-21T23:26:56.392Z,8.58
2019-05-21T23:32:02.872Z,9.20
2019-05-21T23:37:10.694Z,10.38
2019-05-21T23:47:23.754Z,12.03
2019-05-21T23:52:31.670Z,9.33
